sensor_id;sensor_type;location;lat;lon;timestamp;P1;durP1;ratioP1;P2;durP2;ratioP2
485;SDS011;229;48.734;9.340;2023-03-12T00:02:13;10.60;;;6.82;;
485;SDS011;229;48.734;9.340;2023-03-12T00:04:40;10.15;;;7.50;;
485;SDS011;229;48.734;9.340;2023-03-12T00:07:07;10.70;;;6.47;;
485;SDS011;229;48.734;9.340;2023-03-12T00:09:36;8.60;;;6.85;;
485;SDS011;229;48.734;9.340;2023-03-12T00:12:04;9.95;;;6.85;;
485;SDS011;229;48.734;9.340;2023-03-12T00:14:31;7.65;;;6.78;;
485;SDS011;229;48.734;9.340;2023-03-12T00:16:58;11.27;;;7.00;;
485;SDS011;229;48.734;9.340;2023-03-12T00:19:26;11.93;;;6.78;;
485;SDS011;229;48.734;9.340;2023-03-12T00:21:53;10.13;;;7.10;;
485;SDS011;229;48.734;9.340;2023-03-12T00:24:20;14.65;;;7.93;;
485;SDS011;229;48.734;9.340;2023-03-12T00:26:49;8.30;;;7.55;;
485;SDS011;229;48.734;9.340;2023-03-12T00:29:16;10.23;;;7.80;;
485;SDS011;229;48.734;9.340;2023-03-12T00:31:44;13.60;;;8.05;;
485;SDS011;229;48.734;9.340;2023-03-12T00:34:11;11.75;;;8.73;;
485;SDS011;229;48.734;9.340;2023-03-12T00:36:38;8.52;;;7.88;;
485;SDS011;229;48.734;9.340;2023-03-12T00:39:05;12.30;;;7.60;;
485;SDS011;229;48.734;9.340;2023-03-12T00:41:33;12.00;;;8.75;;
485;SDS011;229;48.734;9.340;2023-03-12T00:44:01;13.43;;;8.63;;
485;SDS011;229;48.734;9.340;2023-03-12T00:46:28;15.90;;;8.20;;
485;SDS011;229;48.734;9.340;2023-03-12T00:48:55;10.90;;;8.82;;
485;SDS011;229;48.734;9.340;2023-03-12T00:51:23;15.23;;;8.80;;
485;SDS011;229;48.734;9.340;2023-03-12T00:53:50;13.40;;;9.50;;
485;SDS011;229;48.734;9.340;2023-03-12T00:56:17;12.73;;;8.13;;
485;SDS011;229;48.734;9.340;2023-03-12T00:58:44;14.23;;;8.85;;
485;SDS011;229;48.734;9.340;2023-03-12T01:01:13;15.43;;;9.20;;
485;SDS011;229;48.734;9.340;2023-03-12T01:03:40;12.35;;;9.40;;
485;SDS011;229;48.734;9.340;2023-03-12T01:06:07;12.45;;;8.90;;
485;SDS011;229;48.734;9.340;2023-03-12T01:08:35;14.23;;;9.55;;
485;SDS011;229;48.734;9.340;2023-03-12T01:11:02;11.98;;;8.93;;
485;SDS011;229;48.734;9.340;2023-03-12T01:13:30;11.05;;;9.07;;
485;SDS011;229;48.734;9.340;2023-03-12T01:15:57;13.98;;;8.38;;
485;SDS011;229;48.734;9.340;2023-03-12T01:18:26;16.13;;;9.98;;
485;SDS011;229;48.734;9.340;2023-03-12T01:20:53;10.85;;;8.25;;
485;SDS011;229;48.734;9.340;2023-03-12T01:23:20;14.32;;;9.15;;
485;SDS011;229;48.734;9.340;2023-03-12T01:25:47;10.10;;;9.30;;
485;SDS011;229;48.734;9.340;2023-03-12T01:28:16;10.98;;;9.05;;
485;SDS011;229;48.734;9.340;2023-03-12T01:30:43;13.07;;;8.88;;
485;SDS011;229;48.734;9.340;2023-03-12T01:33:10;13.32;;;9.70;;
485;SDS011;229;48.734;9.340;2023-03-12T01:35:39;14.15;;;9.60;;
485;SDS011;229;48.734;9.340;2023-03-12T01:38:07;14.25;;;9.50;;
485;SDS011;229;48.734;9.340;2023-03-12T01:40:34;11.73;;;9.40;;
485;SDS011;229;48.734;9.340;2023-03-12T01:43:18;13.73;;;10.18;;
485;SDS011;229;48.734;9.340;2023-03-12T01:46:03;13.20;;;10.10;;
485;SDS011;229;48.734;9.340;2023-03-12T01:48:31;13.43;;;10.43;;
485;SDS011;229;48.734;9.340;2023-03-12T01:51:01;12.45;;;9.48;;
485;SDS011;229;48.734;9.340;2023-03-12T01:53:28;13.13;;;10.40;;
485;SDS011;229;48.734;9.340;2023-03-12T01:55:56;17.50;;;11.02;;
485;SDS011;229;48.734;9.340;2023-03-12T01:58:23;13.20;;;10.18;;
485;SDS011;229;48.734;9.340;2023-03-12T02:00:53;9.57;;;9.10;;
485;SDS011;229;48.734;9.340;2023-03-12T02:03:20;17.52;;;11.02;;
485;SDS011;229;48.734;9.340;2023-03-12T02:05:50;13.68;;;10.57;;
485;SDS011;229;48.734;9.340;2023-03-12T02:08:20;16.23;;;10.25;;
485;SDS011;229;48.734;9.340;2023-03-12T02:10:49;16.88;;;10.40;;
485;SDS011;229;48.734;9.340;2023-03-12T02:13:16;13.25;;;10.35;;
485;SDS011;229;48.734;9.340;2023-03-12T02:15:44;12.77;;;10.68;;
485;SDS011;229;48.734;9.340;2023-03-12T02:18:12;16.88;;;10.88;;
485;SDS011;229;48.734;9.340;2023-03-12T02:20:42;12.60;;;10.00;;
485;SDS011;229;48.734;9.340;2023-03-12T02:23:12;14.60;;;10.23;;
485;SDS011;229;48.734;9.340;2023-03-12T02:25:45;11.75;;;10.25;;
485;SDS011;229;48.734;9.340;2023-03-12T02:28:12;13.30;;;9.98;;
485;SDS011;229;48.734;9.340;2023-03-12T02:30:41;13.27;;;10.45;;
485;SDS011;229;48.734;9.340;2023-03-12T02:33:09;15.60;;;9.75;;
485;SDS011;229;48.734;9.340;2023-03-12T02:35:36;12.23;;;9.57;;
485;SDS011;229;48.734;9.340;2023-03-12T02:40:47;15.27;;;10.32;;
485;SDS011;229;48.734;9.340;2023-03-12T02:43:14;13.25;;;9.98;;
485;SDS011;229;48.734;9.340;2023-03-12T02:45:45;12.40;;;10.43;;
485;SDS011;229;48.734;9.340;2023-03-12T02:48:13;13.70;;;9.98;;
485;SDS011;229;48.734;9.340;2023-03-12T02:50:40;15.48;;;10.13;;
485;SDS011;229;48.734;9.340;2023-03-12T02:53:07;12.05;;;9.63;;
485;SDS011;229;48.734;9.340;2023-03-12T02:55:35;15.45;;;10.65;;
485;SDS011;229;48.734;9.340;2023-03-12T02:58:03;12.95;;;10.75;;
485;SDS011;229;48.734;9.340;2023-03-12T03:00:30;15.32;;;10.10;;
485;SDS011;229;48.734;9.340;2023-03-12T03:02:58;14.77;;;10.48;;
485;SDS011;229;48.734;9.340;2023-03-12T03:05:25;12.10;;;9.73;;
485;SDS011;229;48.734;9.340;2023-03-12T03:07:52;12.82;;;10.10;;
485;SDS011;229;48.734;9.340;2023-03-12T03:10:19;17.70;;;10.88;;
485;SDS011;229;48.734;9.340;2023-03-12T03:12:46;14.65;;;11.27;;
485;SDS011;229;48.734;9.340;2023-03-12T03:15:15;12.40;;;10.07;;
485;SDS011;229;48.734;9.340;2023-03-12T03:17:42;11.50;;;10.10;;
485;SDS011;229;48.734;9.340;2023-03-12T03:20:10;14.80;;;9.98;;
485;SDS011;229;48.734;9.340;2023-03-12T03:22:37;13.10;;;10.55;;
485;SDS011;229;48.734;9.340;2023-03-12T03:25:05;16.15;;;10.20;;
485;SDS011;229;48.734;9.340;2023-03-12T03:27:32;13.07;;;9.73;;
485;SDS011;229;48.734;9.340;2023-03-12T03:30:00;18.60;;;11.25;;
485;SDS011;229;48.734;9.340;2023-03-12T03:32:28;16.10;;;10.95;;
485;SDS011;229;48.734;9.340;2023-03-12T03:34:56;15.07;;;10.20;;
485;SDS011;229;48.734;9.340;2023-03-12T03:37:23;13.95;;;10.98;;
485;SDS011;229;48.734;9.340;2023-03-12T03:39:50;11.90;;;10.40;;
485;SDS011;229;48.734;9.340;2023-03-12T03:42:17;13.30;;;10.15;;
485;SDS011;229;48.734;9.340;2023-03-12T03:44:44;15.60;;;10.98;;
485;SDS011;229;48.734;9.340;2023-03-12T03:47:11;14.88;;;11.40;;
485;SDS011;229;48.734;9.340;2023-03-12T03:49:40;13.70;;;10.65;;
485;SDS011;229;48.734;9.340;2023-03-12T03:52:07;17.10;;;10.55;;
485;SDS011;229;48.734;9.340;2023-03-12T03:54:34;17.70;;;11.32;;
485;SDS011;229;48.734;9.340;2023-03-12T03:57:01;14.38;;;10.27;;
485;SDS011;229;48.734;9.340;2023-03-12T03:59:29;13.43;;;11.25;;
485;SDS011;229;48.734;9.340;2023-03-12T04:01:56;14.15;;;10.50;;
485;SDS011;229;48.734;9.340;2023-03-12T04:04:23;13.13;;;10.63;;
485;SDS011;229;48.734;9.340;2023-03-12T04:06:52;12.70;;;10.57;;
485;SDS011;229;48.734;9.340;2023-03-12T04:09:19;16.05;;;10.15;;
485;SDS011;229;48.734;9.340;2023-03-12T04:11:46;14.55;;;10.32;;
485;SDS011;229;48.734;9.340;2023-03-12T04:14:13;13.05;;;11.30;;
485;SDS011;229;48.734;9.340;2023-03-12T04:16:40;15.20;;;10.27;;
485;SDS011;229;48.734;9.340;2023-03-12T04:19:07;14.93;;;9.07;;
485;SDS011;229;48.734;9.340;2023-03-12T04:21:35;17.17;;;9.93;;
485;SDS011;229;48.734;9.340;2023-03-12T04:24:05;12.70;;;9.88;;
485;SDS011;229;48.734;9.340;2023-03-12T04:26:32;15.50;;;10.43;;
485;SDS011;229;48.734;9.340;2023-03-12T04:29:00;18.40;;;10.98;;
485;SDS011;229;48.734;9.340;2023-03-12T04:31:27;14.57;;;9.73;;
485;SDS011;229;48.734;9.340;2023-03-12T04:33:54;12.50;;;9.57;;
485;SDS011;229;48.734;9.340;2023-03-12T04:36:21;18.05;;;10.23;;
485;SDS011;229;48.734;9.340;2023-03-12T04:38:49;19.10;;;9.90;;
485;SDS011;229;48.734;9.340;2023-03-12T04:41:17;17.73;;;10.85;;
485;SDS011;229;48.734;9.340;2023-03-12T04:43:44;14.68;;;10.10;;
485;SDS011;229;48.734;9.340;2023-03-12T04:46:12;16.08;;;10.18;;
485;SDS011;229;48.734;9.340;2023-03-12T04:48:39;12.45;;;9.52;;
485;SDS011;229;48.734;9.340;2023-03-12T04:51:06;14.02;;;9.90;;
485;SDS011;229;48.734;9.340;2023-03-12T04:53:33;12.05;;;9.35;;
485;SDS011;229;48.734;9.340;2023-03-12T04:56:00;16.40;;;10.02;;
485;SDS011;229;48.734;9.340;2023-03-12T04:58:29;15.38;;;10.05;;
485;SDS011;229;48.734;9.340;2023-03-12T05:00:56;17.33;;;9.95;;
485;SDS011;229;48.734;9.340;2023-03-12T05:03:23;11.70;;;9.18;;
485;SDS011;229;48.734;9.340;2023-03-12T05:05:51;18.30;;;10.52;;
485;SDS011;229;48.734;9.340;2023-03-12T05:08:18;14.32;;;9.85;;
485;SDS011;229;48.734;9.340;2023-03-12T05:10:45;13.65;;;10.15;;
485;SDS011;229;48.734;9.340;2023-03-12T05:13:13;13.57;;;9.48;;
485;SDS011;229;48.734;9.340;2023-03-12T05:15:42;13.60;;;9.75;;
485;SDS011;229;48.734;9.340;2023-03-12T05:18:09;15.23;;;10.02;;
485;SDS011;229;48.734;9.340;2023-03-12T05:20:36;14.13;;;9.85;;
485;SDS011;229;48.734;9.340;2023-03-12T05:23:03;15.80;;;9.38;;
485;SDS011;229;48.734;9.340;2023-03-12T05:25:31;13.73;;;9.95;;
485;SDS011;229;48.734;9.340;2023-03-12T05:27:58;13.93;;;10.73;;
485;SDS011;229;48.734;9.340;2023-03-12T05:30:25;18.92;;;11.40;;
485;SDS011;229;48.734;9.340;2023-03-12T05:32:53;13.35;;;9.88;;
485;SDS011;229;48.734;9.340;2023-03-12T05:35:21;15.95;;;10.00;;
485;SDS011;229;48.734;9.340;2023-03-12T05:37:48;15.23;;;9.73;;
485;SDS011;229;48.734;9.340;2023-03-12T05:40:15;15.05;;;10.30;;
485;SDS011;229;48.734;9.340;2023-03-12T05:42:42;14.77;;;9.52;;
485;SDS011;229;48.734;9.340;2023-03-12T05:45:09;12.63;;;9.27;;
485;SDS011;229;48.734;9.340;2023-03-12T05:47:37;16.00;;;11.07;;
485;SDS011;229;48.734;9.340;2023-03-12T05:50:06;12.30;;;10.50;;
485;SDS011;229;48.734;9.340;2023-03-12T05:52:34;15.43;;;9.50;;
485;SDS011;229;48.734;9.340;2023-03-12T05:55:02;11.75;;;10.15;;
485;SDS011;229;48.734;9.340;2023-03-12T05:57:29;15.68;;;10.57;;
485;SDS011;229;48.734;9.340;2023-03-12T05:59:56;18.98;;;10.50;;
485;SDS011;229;48.734;9.340;2023-03-12T06:02:23;14.05;;;10.30;;
485;SDS011;229;48.734;9.340;2023-03-12T06:04:50;13.63;;;9.77;;
485;SDS011;229;48.734;9.340;2023-03-12T06:07:19;13.88;;;9.95;;
485;SDS011;229;48.734;9.340;2023-03-12T06:09:46;12.93;;;9.70;;
485;SDS011;229;48.734;9.340;2023-03-12T06:12:13;14.88;;;10.93;;
485;SDS011;229;48.734;9.340;2023-03-12T06:14:41;14.68;;;9.90;;
485;SDS011;229;48.734;9.340;2023-03-12T06:17:08;17.20;;;10.30;;
485;SDS011;229;48.734;9.340;2023-03-12T06:19:35;15.30;;;10.98;;
485;SDS011;229;48.734;9.340;2023-03-12T06:22:02;11.85;;;10.20;;
485;SDS011;229;48.734;9.340;2023-03-12T06:24:31;14.68;;;10.75;;
485;SDS011;229;48.734;9.340;2023-03-12T06:26:58;12.70;;;10.65;;
485;SDS011;229;48.734;9.340;2023-03-12T06:29:25;13.98;;;11.13;;
485;SDS011;229;48.734;9.340;2023-03-12T06:31:52;18.35;;;11.48;;
485;SDS011;229;48.734;9.340;2023-03-12T06:34:20;14.23;;;10.25;;
485;SDS011;229;48.734;9.340;2023-03-12T06:36:47;16.38;;;12.05;;
485;SDS011;229;48.734;9.340;2023-03-12T06:39:14;16.10;;;11.15;;
485;SDS011;229;48.734;9.340;2023-03-12T06:41:43;18.00;;;11.35;;
485;SDS011;229;48.734;9.340;2023-03-12T06:44:11;23.20;;;11.77;;
485;SDS011;229;48.734;9.340;2023-03-12T06:46:38;15.55;;;10.40;;
485;SDS011;229;48.734;9.340;2023-03-12T06:49:05;13.68;;;11.07;;
485;SDS011;229;48.734;9.340;2023-03-12T06:51:32;19.50;;;12.20;;
485;SDS011;229;48.734;9.340;2023-03-12T06:53:59;21.45;;;11.75;;
485;SDS011;229;48.734;9.340;2023-03-12T06:56:27;18.15;;;11.48;;
485;SDS011;229;48.734;9.340;2023-03-12T06:58:55;18.77;;;11.48;;
485;SDS011;229;48.734;9.340;2023-03-12T07:01:22;18.13;;;11.68;;
485;SDS011;229;48.734;9.340;2023-03-12T07:03:50;15.48;;;11.70;;
485;SDS011;229;48.734;9.340;2023-03-12T07:06:17;16.45;;;11.75;;
485;SDS011;229;48.734;9.340;2023-03-12T07:08:45;15.32;;;12.07;;
485;SDS011;229;48.734;9.340;2023-03-12T07:11:12;16.40;;;11.65;;
485;SDS011;229;48.734;9.340;2023-03-12T07:13:40;19.92;;;13.02;;
485;SDS011;229;48.734;9.340;2023-03-12T07:16:09;17.45;;;11.60;;
485;SDS011;229;48.734;9.340;2023-03-12T07:18:36;18.25;;;12.15;;
485;SDS011;229;48.734;9.340;2023-03-12T07:21:04;14.88;;;11.73;;
485;SDS011;229;48.734;9.340;2023-03-12T07:23:31;16.52;;;12.32;;
485;SDS011;229;48.734;9.340;2023-03-12T07:25:58;16.88;;;12.43;;
485;SDS011;229;48.734;9.340;2023-03-12T07:28:25;18.98;;;12.18;;
485;SDS011;229;48.734;9.340;2023-03-12T07:30:58;21.95;;;14.48;;
485;SDS011;229;48.734;9.340;2023-03-12T07:33:27;15.07;;;12.45;;
485;SDS011;229;48.734;9.340;2023-03-12T07:35:54;16.10;;;12.10;;
485;SDS011;229;48.734;9.340;2023-03-12T07:38:21;21.20;;;12.80;;
485;SDS011;229;48.734;9.340;2023-03-12T07:40:51;16.25;;;12.27;;
485;SDS011;229;48.734;9.340;2023-03-12T07:43:19;14.10;;;12.25;;
485;SDS011;229;48.734;9.340;2023-03-12T07:45:46;25.27;;;13.93;;
485;SDS011;229;48.734;9.340;2023-03-12T07:48:13;17.80;;;12.93;;
485;SDS011;229;48.734;9.340;2023-03-12T07:50:42;20.70;;;13.25;;
485;SDS011;229;48.734;9.340;2023-03-12T07:53:09;20.35;;;14.45;;
485;SDS011;229;48.734;9.340;2023-03-12T07:55:37;20.50;;;13.55;;
485;SDS011;229;48.734;9.340;2023-03-12T07:58:04;26.45;;;14.48;;
485;SDS011;229;48.734;9.340;2023-03-12T08:00:31;17.80;;;13.20;;
485;SDS011;229;48.734;9.340;2023-03-12T08:02:58;21.85;;;14.48;;
485;SDS011;229;48.734;9.340;2023-03-12T08:05:26;20.35;;;13.73;;
485;SDS011;229;48.734;9.340;2023-03-12T08:07:54;20.77;;;14.75;;
485;SDS011;229;48.734;9.340;2023-03-12T08:10:22;29.70;;;13.07;;
485;SDS011;229;48.734;9.340;2023-03-12T08:12:49;21.67;;;13.50;;
485;SDS011;229;48.734;9.340;2023-03-12T08:15:16;24.00;;;13.75;;
485;SDS011;229;48.734;9.340;2023-03-12T08:17:44;18.65;;;13.05;;
485;SDS011;229;48.734;9.340;2023-03-12T08:20:11;16.00;;;12.95;;
485;SDS011;229;48.734;9.340;2023-03-12T08:22:39;16.02;;;11.50;;
485;SDS011;229;48.734;9.340;2023-03-12T08:25:08;17.75;;;12.48;;
485;SDS011;229;48.734;9.340;2023-03-12T08:27:36;18.88;;;13.70;;
485;SDS011;229;48.734;9.340;2023-03-12T08:30:03;17.35;;;12.52;;
485;SDS011;229;48.734;9.340;2023-03-12T08:32:30;21.10;;;12.85;;
485;SDS011;229;48.734;9.340;2023-03-12T08:34:58;15.50;;;11.63;;
485;SDS011;229;48.734;9.340;2023-03-12T08:37:25;16.52;;;12.27;;
485;SDS011;229;48.734;9.340;2023-03-12T08:39:52;19.17;;;12.10;;
485;SDS011;229;48.734;9.340;2023-03-12T08:42:21;18.52;;;11.90;;
485;SDS011;229;48.734;9.340;2023-03-12T08:44:48;16.63;;;11.07;;
485;SDS011;229;48.734;9.340;2023-03-12T08:47:15;17.02;;;11.43;;
485;SDS011;229;48.734;9.340;2023-03-12T08:49:42;17.65;;;12.10;;
485;SDS011;229;48.734;9.340;2023-03-12T08:52:10;20.33;;;12.32;;
485;SDS011;229;48.734;9.340;2023-03-12T08:54:37;17.75;;;11.15;;
485;SDS011;229;48.734;9.340;2023-03-12T08:57:04;26.38;;;14.75;;
485;SDS011;229;48.734;9.340;2023-03-12T08:59:32;16.05;;;12.73;;
485;SDS011;229;48.734;9.340;2023-03-12T09:02:00;17.42;;;12.18;;
485;SDS011;229;48.734;9.340;2023-03-12T09:04:27;20.23;;;13.60;;
485;SDS011;229;48.734;9.340;2023-03-12T09:06:54;15.40;;;11.80;;
485;SDS011;229;48.734;9.340;2023-03-12T09:09:21;18.27;;;13.35;;
485;SDS011;229;48.734;9.340;2023-03-12T09:11:48;19.30;;;13.70;;
485;SDS011;229;48.734;9.340;2023-03-12T09:14:16;20.80;;;13.15;;
485;SDS011;229;48.734;9.340;2023-03-12T09:16:44;16.92;;;12.10;;
485;SDS011;229;48.734;9.340;2023-03-12T09:19:11;18.55;;;12.60;;
485;SDS011;229;48.734;9.340;2023-03-12T09:21:39;16.13;;;12.77;;
485;SDS011;229;48.734;9.340;2023-03-12T09:24:06;18.08;;;13.57;;
485;SDS011;229;48.734;9.340;2023-03-12T09:26:33;20.90;;;13.82;;
485;SDS011;229;48.734;9.340;2023-03-12T09:29:04;18.42;;;13.32;;
485;SDS011;229;48.734;9.340;2023-03-12T09:31:31;19.98;;;12.45;;
485;SDS011;229;48.734;9.340;2023-03-12T09:33:59;20.48;;;14.07;;
485;SDS011;229;48.734;9.340;2023-03-12T09:36:27;18.35;;;13.93;;
485;SDS011;229;48.734;9.340;2023-03-12T09:38:54;20.55;;;12.95;;
485;SDS011;229;48.734;9.340;2023-03-12T09:41:22;16.30;;;12.55;;
485;SDS011;229;48.734;9.340;2023-03-12T09:43:51;17.30;;;12.57;;
485;SDS011;229;48.734;9.340;2023-03-12T09:46:21;17.50;;;12.93;;
485;SDS011;229;48.734;9.340;2023-03-12T09:48:50;17.30;;;13.60;;
485;SDS011;229;48.734;9.340;2023-03-12T09:51:19;16.38;;;12.88;;
485;SDS011;229;48.734;9.340;2023-03-12T09:53:48;20.08;;;13.52;;
485;SDS011;229;48.734;9.340;2023-03-12T09:56:17;18.42;;;13.02;;
485;SDS011;229;48.734;9.340;2023-03-12T09:58:46;17.55;;;12.75;;
485;SDS011;229;48.734;9.340;2023-03-12T10:01:20;16.08;;;12.35;;
485;SDS011;229;48.734;9.340;2023-03-12T10:04:00;13.65;;;10.70;;
485;SDS011;229;48.734;9.340;2023-03-12T10:06:31;17.42;;;10.93;;
485;SDS011;229;48.734;9.340;2023-03-12T10:09:04;15.52;;;10.77;;
485;SDS011;229;48.734;9.340;2023-03-12T10:11:35;14.02;;;10.82;;
485;SDS011;229;48.734;9.340;2023-03-12T10:14:07;15.55;;;11.95;;
485;SDS011;229;48.734;9.340;2023-03-12T10:16:42;16.45;;;11.05;;
485;SDS011;229;48.734;9.340;2023-03-12T10:19:20;14.90;;;10.95;;
485;SDS011;229;48.734;9.340;2023-03-12T10:21:52;15.98;;;10.57;;
485;SDS011;229;48.734;9.340;2023-03-12T10:24:34;12.32;;;9.27;;
485;SDS011;229;48.734;9.340;2023-03-12T10:27:06;12.30;;;9.32;;
485;SDS011;229;48.734;9.340;2023-03-12T10:29:35;14.15;;;9.25;;
485;SDS011;229;48.734;9.340;2023-03-12T10:32:05;16.77;;;10.45;;
485;SDS011;229;48.734;9.340;2023-03-12T10:34:35;11.50;;;8.48;;
485;SDS011;229;48.734;9.340;2023-03-12T10:37:10;14.23;;;9.40;;
485;SDS011;229;48.734;9.340;2023-03-12T10:39:38;15.60;;;9.07;;
485;SDS011;229;48.734;9.340;2023-03-12T10:42:09;12.57;;;8.50;;
485;SDS011;229;48.734;9.340;2023-03-12T10:44:38;16.48;;;10.55;;
485;SDS011;229;48.734;9.340;2023-03-12T10:47:06;15.45;;;10.40;;
485;SDS011;229;48.734;9.340;2023-03-12T10:49:34;17.23;;;10.00;;
485;SDS011;229;48.734;9.340;2023-03-12T10:52:04;14.57;;;10.15;;
485;SDS011;229;48.734;9.340;2023-03-12T10:54:34;16.08;;;9.98;;
485;SDS011;229;48.734;9.340;2023-03-12T10:57:02;16.13;;;10.40;;
485;SDS011;229;48.734;9.340;2023-03-12T10:59:30;14.88;;;10.50;;
485;SDS011;229;48.734;9.340;2023-03-12T11:01:58;20.98;;;11.60;;
485;SDS011;229;48.734;9.340;2023-03-12T11:04:26;14.00;;;9.30;;
485;SDS011;229;48.734;9.340;2023-03-12T11:07:15;14.13;;;10.45;;
485;SDS011;229;48.734;9.340;2023-03-12T11:09:45;15.48;;;10.40;;
485;SDS011;229;48.734;9.340;2023-03-12T11:12:22;14.60;;;10.85;;
485;SDS011;229;48.734;9.340;2023-03-12T11:14:49;13.88;;;9.95;;
485;SDS011;229;48.734;9.340;2023-03-12T11:17:21;15.77;;;9.55;;
485;SDS011;229;48.734;9.340;2023-03-12T11:19:48;12.68;;;9.77;;
485;SDS011;229;48.734;9.340;2023-03-12T11:22:25;12.38;;;9.68;;
485;SDS011;229;48.734;9.340;2023-03-12T11:24:57;10.13;;;8.93;;
485;SDS011;229;48.734;9.340;2023-03-12T11:27:34;11.85;;;9.50;;
485;SDS011;229;48.734;9.340;2023-03-12T11:30:04;12.88;;;9.27;;
485;SDS011;229;48.734;9.340;2023-03-12T11:32:33;16.58;;;8.50;;
485;SDS011;229;48.734;9.340;2023-03-12T11:35:02;9.40;;;7.50;;
485;SDS011;229;48.734;9.340;2023-03-12T11:37:31;10.73;;;5.88;;
485;SDS011;229;48.734;9.340;2023-03-12T11:40:07;6.70;;;5.10;;
485;SDS011;229;48.734;9.340;2023-03-12T11:42:40;8.93;;;5.03;;
485;SDS011;229;48.734;9.340;2023-03-12T11:45:13;7.72;;;5.00;;
485;SDS011;229;48.734;9.340;2023-03-12T11:47:51;6.38;;;5.57;;
485;SDS011;229;48.734;9.340;2023-03-12T11:50:23;9.30;;;5.30;;
485;SDS011;229;48.734;9.340;2023-03-12T11:52:59;8.50;;;3.85;;
485;SDS011;229;48.734;9.340;2023-03-12T11:55:37;4.97;;;3.95;;
485;SDS011;229;48.734;9.340;2023-03-12T11:58:12;5.45;;;3.72;;
485;SDS011;229;48.734;9.340;2023-03-12T12:00:43;6.25;;;3.92;;
485;SDS011;229;48.734;9.340;2023-03-12T12:06:06;3.67;;;1.80;;
485;SDS011;229;48.734;9.340;2023-03-12T12:08:50;2.05;;;1.40;;
485;SDS011;229;48.734;9.340;2023-03-12T12:11:23;2.50;;;1.60;;
485;SDS011;229;48.734;9.340;2023-03-12T12:13:56;2.38;;;1.70;;
485;SDS011;229;48.734;9.340;2023-03-12T12:16:30;3.83;;;1.70;;
485;SDS011;229;48.734;9.340;2023-03-12T12:19:01;1.92;;;1.70;;
485;SDS011;229;48.734;9.340;2023-03-12T12:21:34;3.00;;;2.10;;
485;SDS011;229;48.734;9.340;2023-03-12T12:24:04;2.28;;;1.83;;
485;SDS011;229;48.734;9.340;2023-03-12T12:26:37;2.78;;;1.90;;
485;SDS011;229;48.734;9.340;2023-03-12T12:29:20;5.03;;;2.20;;
485;SDS011;229;48.734;9.340;2023-03-12T12:31:52;4.25;;;2.10;;
485;SDS011;229;48.734;9.340;2023-03-12T12:34:33;4.82;;;2.65;;
485;SDS011;229;48.734;9.340;2023-03-12T12:39:58;7.13;;;3.03;;
485;SDS011;229;48.734;9.340;2023-03-12T12:42:30;5.75;;;2.65;;
485;SDS011;229;48.734;9.340;2023-03-12T12:44:58;4.13;;;2.63;;
485;SDS011;229;48.734;9.340;2023-03-12T12:47:31;5.30;;;2.60;;
485;SDS011;229;48.734;9.340;2023-03-12T12:50:00;4.65;;;2.88;;
485;SDS011;229;48.734;9.340;2023-03-12T12:52:28;3.92;;;2.15;;
485;SDS011;229;48.734;9.340;2023-03-12T12:54:58;6.22;;;2.80;;
485;SDS011;229;48.734;9.340;2023-03-12T12:57:27;7.53;;;3.13;;
485;SDS011;229;48.734;9.340;2023-03-12T13:00:07;4.00;;;2.50;;
485;SDS011;229;48.734;9.340;2023-03-12T13:02:37;4.70;;;2.88;;
485;SDS011;229;48.734;9.340;2023-03-12T13:05:12;3.97;;;2.30;;
485;SDS011;229;48.734;9.340;2023-03-12T13:07:43;4.07;;;2.85;;
485;SDS011;229;48.734;9.340;2023-03-12T13:10:37;4.35;;;2.70;;
485;SDS011;229;48.734;9.340;2023-03-12T13:13:08;7.53;;;5.85;;
485;SDS011;229;48.734;9.340;2023-03-12T13:15:37;7.45;;;3.80;;
485;SDS011;229;48.734;9.340;2023-03-12T13:18:08;7.57;;;2.90;;
485;SDS011;229;48.734;9.340;2023-03-12T13:20:44;4.75;;;3.00;;
485;SDS011;229;48.734;9.340;2023-03-12T13:23:29;6.63;;;3.20;;
485;SDS011;229;48.734;9.340;2023-03-12T13:25:59;9.45;;;3.20;;
485;SDS011;229;48.734;9.340;2023-03-12T13:28:31;8.25;;;3.30;;
485;SDS011;229;48.734;9.340;2023-03-12T13:31:01;9.32;;;3.83;;
485;SDS011;229;48.734;9.340;2023-03-12T13:33:36;12.02;;;3.45;;
485;SDS011;229;48.734;9.340;2023-03-12T13:36:09;5.93;;;2.78;;
485;SDS011;229;48.734;9.340;2023-03-12T13:38:38;4.60;;;2.40;;
485;SDS011;229;48.734;9.340;2023-03-12T13:41:05;6.82;;;2.90;;
485;SDS011;229;48.734;9.340;2023-03-12T13:43:40;5.20;;;3.03;;
485;SDS011;229;48.734;9.340;2023-03-12T13:46:19;6.40;;;2.70;;
485;SDS011;229;48.734;9.340;2023-03-12T13:48:47;4.00;;;2.75;;
485;SDS011;229;48.734;9.340;2023-03-12T13:51:15;4.15;;;2.80;;
485;SDS011;229;48.734;9.340;2023-03-12T13:53:46;3.28;;;2.50;;
485;SDS011;229;48.734;9.340;2023-03-12T13:56:15;5.40;;;2.67;;
485;SDS011;229;48.734;9.340;2023-03-12T13:58:46;13.73;;;3.28;;
485;SDS011;229;48.734;9.340;2023-03-12T14:01:16;8.45;;;2.92;;
485;SDS011;229;48.734;9.340;2023-03-12T14:03:45;3.60;;;3.35;;
485;SDS011;229;48.734;9.340;2023-03-12T14:06:15;6.72;;;3.72;;
485;SDS011;229;48.734;9.340;2023-03-12T14:08:49;4.00;;;2.65;;
485;SDS011;229;48.734;9.340;2023-03-12T14:11:23;6.00;;;2.80;;
485;SDS011;229;48.734;9.340;2023-03-12T14:14:03;7.30;;;4.55;;
485;SDS011;229;48.734;9.340;2023-03-12T14:16:34;6.32;;;3.67;;
485;SDS011;229;48.734;9.340;2023-03-12T14:19:04;5.82;;;3.30;;
485;SDS011;229;48.734;9.340;2023-03-12T14:21:32;7.85;;;4.30;;
485;SDS011;229;48.734;9.340;2023-03-12T14:24:00;6.22;;;3.80;;
485;SDS011;229;48.734;9.340;2023-03-12T14:26:30;5.22;;;3.00;;
485;SDS011;229;48.734;9.340;2023-03-12T14:28:58;5.63;;;3.03;;
485;SDS011;229;48.734;9.340;2023-03-12T14:31:26;8.23;;;3.35;;
485;SDS011;229;48.734;9.340;2023-03-12T14:33:57;5.55;;;2.63;;
485;SDS011;229;48.734;9.340;2023-03-12T14:36:25;6.72;;;3.17;;
485;SDS011;229;48.734;9.340;2023-03-12T14:38:57;4.22;;;2.70;;
485;SDS011;229;48.734;9.340;2023-03-12T14:41:26;7.60;;;2.90;;
485;SDS011;229;48.734;9.340;2023-03-12T14:44:02;6.05;;;3.60;;
485;SDS011;229;48.734;9.340;2023-03-12T14:46:29;8.07;;;2.97;;
485;SDS011;229;48.734;9.340;2023-03-12T14:48:58;5.25;;;3.30;;
485;SDS011;229;48.734;9.340;2023-03-12T14:51:26;3.60;;;2.70;;
485;SDS011;229;48.734;9.340;2023-03-12T14:53:53;4.05;;;3.15;;
485;SDS011;229;48.734;9.340;2023-03-12T14:56:22;6.45;;;3.15;;
485;SDS011;229;48.734;9.340;2023-03-12T14:58:51;4.40;;;3.30;;
485;SDS011;229;48.734;9.340;2023-03-12T15:01:20;3.20;;;2.70;;
485;SDS011;229;48.734;9.340;2023-03-12T15:03:48;3.17;;;2.40;;
485;SDS011;229;48.734;9.340;2023-03-12T15:06:18;3.90;;;2.70;;
485;SDS011;229;48.734;9.340;2023-03-12T15:08:47;5.40;;;2.70;;
485;SDS011;229;48.734;9.340;2023-03-12T15:11:18;5.90;;;2.65;;
485;SDS011;229;48.734;9.340;2023-03-12T15:13:45;3.13;;;2.90;;
485;SDS011;229;48.734;9.340;2023-03-12T15:16:13;4.80;;;3.70;;
485;SDS011;229;48.734;9.340;2023-03-12T15:18:40;4.25;;;2.78;;
485;SDS011;229;48.734;9.340;2023-03-12T15:21:07;3.38;;;2.97;;
485;SDS011;229;48.734;9.340;2023-03-12T15:23:36;4.57;;;3.10;;
485;SDS011;229;48.734;9.340;2023-03-12T15:26:07;5.90;;;2.97;;
485;SDS011;229;48.734;9.340;2023-03-12T15:28:34;15.00;;;3.85;;
485;SDS011;229;48.734;9.340;2023-03-12T15:31:06;14.38;;;6.95;;
485;SDS011;229;48.734;9.340;2023-03-12T15:33:33;6.30;;;3.25;;
485;SDS011;229;48.734;9.340;2023-03-12T15:36:02;7.18;;;3.20;;
485;SDS011;229;48.734;9.340;2023-03-12T15:38:29;8.10;;;3.40;;
485;SDS011;229;48.734;9.340;2023-03-12T15:40:59;8.35;;;3.30;;
485;SDS011;229;48.734;9.340;2023-03-12T15:43:29;9.88;;;3.85;;
485;SDS011;229;48.734;9.340;2023-03-12T15:45:57;7.40;;;3.22;;
485;SDS011;229;48.734;9.340;2023-03-12T15:48:26;9.57;;;4.13;;